sensor_id;sensor_type;location;lat;lon;timestamp;P1;durP1;ratioP1;P2;durP2;ratioP2
60038;SDS011;45916;52.734;6.544;2023-05-10T00:01:46;16.63;;;13.98;;
60038;SDS011;45916;52.734;6.544;2023-05-10T00:04:11;17.35;;;15.48;;
60038;SDS011;45916;52.734;6.544;2023-05-10T00:06:37;16.88;;;14.77;;
60038;SDS011;45916;52.734;6.544;2023-05-10T00:09:03;18.67;;;15.00;;
60038;SDS011;45916;52.734;6.544;2023-05-10T00:11:29;16.08;;;13.93;;
60038;SDS011;45916;52.734;6.544;2023-05-10T00:13:54;17.60;;;15.02;;
60038;SDS011;45916;52.734;6.544;2023-05-10T00:16:20;16.77;;;14.98;;
60038;SDS011;45916;52.734;6.544;2023-05-10T00:18:46;18.13;;;15.48;;
60038;SDS011;45916;52.734;6.544;2023-05-10T00:21:12;19.15;;;16.58;;
60038;SDS011;45916;52.734;6.544;2023-05-10T00:23:37;19.02;;;15.90;;
60038;SDS011;45916;52.734;6.544;2023-05-10T00:26:03;19.60;;;15.25;;
60038;SDS011;45916;52.734;6.544;2023-05-10T00:28:29;18.33;;;15.70;;
60038;SDS011;45916;52.734;6.544;2023-05-10T00:30:54;17.58;;;15.68;;
60038;SDS011;45916;52.734;6.544;2023-05-10T00:33:20;18.45;;;14.93;;
60038;SDS011;45916;52.734;6.544;2023-05-10T00:35:46;18.67;;;15.10;;
60038;SDS011;45916;52.734;6.544;2023-05-10T00:38:12;18.40;;;15.77;;
60038;SDS011;45916;52.734;6.544;2023-05-10T00:40:38;17.75;;;15.07;;
60038;SDS011;45916;52.734;6.544;2023-05-10T00:43:03;20.45;;;15.38;;
60038;SDS011;45916;52.734;6.544;2023-05-10T00:45:32;16.35;;;14.20;;
60038;SDS011;45916;52.734;6.544;2023-05-10T00:48:01;22.45;;;14.10;;
60038;SDS011;45916;52.734;6.544;2023-05-10T00:54:10;19.00;;;15.95;;
60038;SDS011;45916;52.734;6.544;2023-05-10T00:56:38;17.25;;;14.23;;
60038;SDS011;45916;52.734;6.544;2023-05-10T00:59:04;17.15;;;14.05;;
60038;SDS011;45916;52.734;6.544;2023-05-10T01:01:30;18.38;;;14.65;;
60038;SDS011;45916;52.734;6.544;2023-05-10T01:03:56;17.20;;;13.55;;
60038;SDS011;45916;52.734;6.544;2023-05-10T01:06:22;17.40;;;12.88;;
60038;SDS011;45916;52.734;6.544;2023-05-10T01:08:47;18.00;;;13.25;;
60038;SDS011;45916;52.734;6.544;2023-05-10T01:11:13;15.98;;;12.15;;
60038;SDS011;45916;52.734;6.544;2023-05-10T01:13:40;16.20;;;13.90;;
60038;SDS011;45916;52.734;6.544;2023-05-10T01:16:07;14.65;;;12.07;;
60038;SDS011;45916;52.734;6.544;2023-05-10T01:18:37;17.05;;;13.10;;
60038;SDS011;45916;52.734;6.544;2023-05-10T01:21:10;14.93;;;12.18;;
60038;SDS011;45916;52.734;6.544;2023-05-10T01:24:02;16.00;;;12.80;;
60038;SDS011;45916;52.734;6.544;2023-05-10T01:29:47;15.45;;;12.18;;
60038;SDS011;45916;52.734;6.544;2023-05-10T01:40:44;14.40;;;11.10;;
60038;SDS011;45916;52.734;6.544;2023-05-10T01:43:12;12.90;;;10.93;;
60038;SDS011;45916;52.734;6.544;2023-05-10T01:48:54;14.75;;;11.07;;
60038;SDS011;45916;52.734;6.544;2023-05-10T01:51:23;12.98;;;10.32;;
60038;SDS011;45916;52.734;6.544;2023-05-10T01:53:51;13.02;;;9.65;;
60038;SDS011;45916;52.734;6.544;2023-05-10T01:56:24;12.32;;;9.70;;
60038;SDS011;45916;52.734;6.544;2023-05-10T01:58:51;12.32;;;9.57;;
60038;SDS011;45916;52.734;6.544;2023-05-10T02:01:20;12.57;;;10.40;;
60038;SDS011;45916;52.734;6.544;2023-05-10T02:03:46;13.63;;;9.55;;
60038;SDS011;45916;52.734;6.544;2023-05-10T02:06:15;11.70;;;8.82;;
60038;SDS011;45916;52.734;6.544;2023-05-10T02:11:11;13.60;;;9.80;;
60038;SDS011;45916;52.734;6.544;2023-05-10T02:13:38;13.48;;;10.27;;
60038;SDS011;45916;52.734;6.544;2023-05-10T02:16:06;14.77;;;10.48;;
60038;SDS011;45916;52.734;6.544;2023-05-10T02:18:33;12.47;;;8.90;;
60038;SDS011;45916;52.734;6.544;2023-05-10T02:21:01;12.00;;;9.15;;
60038;SDS011;45916;52.734;6.544;2023-05-10T02:23:28;11.30;;;9.48;;
60038;SDS011;45916;52.734;6.544;2023-05-10T02:25:54;12.25;;;9.98;;
60038;SDS011;45916;52.734;6.544;2023-05-10T02:28:21;12.55;;;9.88;;
60038;SDS011;45916;52.734;6.544;2023-05-10T02:30:49;12.02;;;9.38;;
60038;SDS011;45916;52.734;6.544;2023-05-10T02:33:16;13.57;;;9.48;;
60038;SDS011;45916;52.734;6.544;2023-05-10T02:35:43;11.02;;;8.95;;
60038;SDS011;45916;52.734;6.544;2023-05-10T02:38:09;11.90;;;8.40;;
60038;SDS011;45916;52.734;6.544;2023-05-10T02:40:36;11.02;;;8.38;;
60038;SDS011;45916;52.734;6.544;2023-05-10T02:43:03;12.15;;;9.52;;
60038;SDS011;45916;52.734;6.544;2023-05-10T02:45:31;10.85;;;8.50;;
60038;SDS011;45916;52.734;6.544;2023-05-10T02:47:59;11.85;;;9.07;;
60038;SDS011;45916;52.734;6.544;2023-05-10T02:50:25;10.98;;;8.98;;
60038;SDS011;45916;52.734;6.544;2023-05-10T02:52:54;12.70;;;10.18;;
60038;SDS011;45916;52.734;6.544;2023-05-10T02:55:26;12.73;;;9.48;;
60038;SDS011;45916;52.734;6.544;2023-05-10T02:58:01;12.00;;;8.95;;
60038;SDS011;45916;52.734;6.544;2023-05-10T03:00:27;12.05;;;9.55;;
60038;SDS011;45916;52.734;6.544;2023-05-10T03:02:53;11.88;;;9.77;;
60038;SDS011;45916;52.734;6.544;2023-05-10T03:05:19;12.95;;;9.48;;
60038;SDS011;45916;52.734;6.544;2023-05-10T03:07:45;11.75;;;10.05;;
60038;SDS011;45916;52.734;6.544;2023-05-10T03:10:12;11.60;;;9.73;;
60038;SDS011;45916;52.734;6.544;2023-05-10T03:17:52;12.88;;;9.93;;
60038;SDS011;45916;52.734;6.544;2023-05-10T03:20:41;12.13;;;9.68;;
60038;SDS011;45916;52.734;6.544;2023-05-10T03:25:43;13.35;;;9.63;;
60038;SDS011;45916;52.734;6.544;2023-05-10T03:28:12;12.55;;;9.93;;
60038;SDS011;45916;52.734;6.544;2023-05-10T03:30:39;12.77;;;10.18;;
60038;SDS011;45916;52.734;6.544;2023-05-10T03:33:07;13.23;;;10.50;;
60038;SDS011;45916;52.734;6.544;2023-05-10T03:35:33;12.73;;;10.52;;
60038;SDS011;45916;52.734;6.544;2023-05-10T03:37:59;12.85;;;10.85;;
60038;SDS011;45916;52.734;6.544;2023-05-10T03:40:26;14.65;;;11.25;;
60038;SDS011;45916;52.734;6.544;2023-05-10T03:42:54;14.30;;;10.73;;
60038;SDS011;45916;52.734;6.544;2023-05-10T03:45:20;15.27;;;11.07;;
60038;SDS011;45916;52.734;6.544;2023-05-10T03:47:46;13.05;;;10.63;;
60038;SDS011;45916;52.734;6.544;2023-05-10T03:50:11;13.50;;;10.35;;
60038;SDS011;45916;52.734;6.544;2023-05-10T03:52:37;13.77;;;11.35;;
60038;SDS011;45916;52.734;6.544;2023-05-10T03:55:04;13.63;;;10.68;;
60038;SDS011;45916;52.734;6.544;2023-05-10T03:57:31;16.00;;;11.07;;
60038;SDS011;45916;52.734;6.544;2023-05-10T03:59:57;14.95;;;11.23;;
60038;SDS011;45916;52.734;6.544;2023-05-10T04:02:22;13.93;;;11.23;;
60038;SDS011;45916;52.734;6.544;2023-05-10T04:04:48;14.70;;;11.77;;
60038;SDS011;45916;52.734;6.544;2023-05-10T04:07:14;15.50;;;12.05;;
60038;SDS011;45916;52.734;6.544;2023-05-10T04:09:40;14.55;;;11.18;;
60038;SDS011;45916;52.734;6.544;2023-05-10T04:12:06;13.90;;;11.52;;
60038;SDS011;45916;52.734;6.544;2023-05-10T04:14:32;14.32;;;11.55;;
60038;SDS011;45916;52.734;6.544;2023-05-10T04:16:58;15.80;;;12.13;;
60038;SDS011;45916;52.734;6.544;2023-05-10T04:19:28;18.13;;;11.85;;
60038;SDS011;45916;52.734;6.544;2023-05-10T04:21:57;15.70;;;12.38;;
60038;SDS011;45916;52.734;6.544;2023-05-10T04:24:23;16.40;;;11.63;;
60038;SDS011;45916;52.734;6.544;2023-05-10T04:26:49;15.05;;;11.48;;
60038;SDS011;45916;52.734;6.544;2023-05-10T04:29:15;14.23;;;11.73;;
60038;SDS011;45916;52.734;6.544;2023-05-10T04:31:41;15.88;;;11.63;;
60038;SDS011;45916;52.734;6.544;2023-05-10T04:34:06;16.55;;;12.20;;
60038;SDS011;45916;52.734;6.544;2023-05-10T04:36:32;13.73;;;11.43;;
60038;SDS011;45916;52.734;6.544;2023-05-10T04:39:00;15.43;;;10.77;;
60038;SDS011;45916;52.734;6.544;2023-05-10T04:41:27;17.35;;;11.68;;
60038;SDS011;45916;52.734;6.544;2023-05-10T04:43:53;13.02;;;9.68;;
60038;SDS011;45916;52.734;6.544;2023-05-10T04:46:19;11.93;;;9.30;;
60038;SDS011;45916;52.734;6.544;2023-05-10T04:48:44;13.43;;;10.15;;
60038;SDS011;45916;52.734;6.544;2023-05-10T04:51:10;13.15;;;10.32;;
60038;SDS011;45916;52.734;6.544;2023-05-10T04:53:36;14.48;;;10.57;;
60038;SDS011;45916;52.734;6.544;2023-05-10T04:56:01;14.93;;;9.77;;
60038;SDS011;45916;52.734;6.544;2023-05-10T04:58:27;12.68;;;9.63;;
60038;SDS011;45916;52.734;6.544;2023-05-10T05:00:53;12.65;;;9.73;;
60038;SDS011;45916;52.734;6.544;2023-05-10T05:03:19;13.02;;;9.48;;
60038;SDS011;45916;52.734;6.544;2023-05-10T05:05:44;13.45;;;10.55;;
60038;SDS011;45916;52.734;6.544;2023-05-10T05:08:10;12.85;;;10.13;;
60038;SDS011;45916;52.734;6.544;2023-05-10T05:10:36;14.68;;;10.07;;
60038;SDS011;45916;52.734;6.544;2023-05-10T05:13:01;12.73;;;9.68;;
60038;SDS011;45916;52.734;6.544;2023-05-10T05:15:27;13.43;;;9.98;;
60038;SDS011;45916;52.734;6.544;2023-05-10T05:17:53;13.75;;;10.40;;
60038;SDS011;45916;52.734;6.544;2023-05-10T05:20:18;16.40;;;9.48;;
60038;SDS011;45916;52.734;6.544;2023-05-10T05:22:44;14.10;;;9.25;;
60038;SDS011;45916;52.734;6.544;2023-05-10T05:25:10;12.90;;;8.98;;
60038;SDS011;45916;52.734;6.544;2023-05-10T05:27:36;14.65;;;9.98;;
60038;SDS011;45916;52.734;6.544;2023-05-10T05:30:02;12.70;;;10.05;;
60038;SDS011;45916;52.734;6.544;2023-05-10T05:32:29;13.13;;;8.88;;
60038;SDS011;45916;52.734;6.544;2023-05-10T05:34:55;14.77;;;9.80;;
60038;SDS011;45916;52.734;6.544;2023-05-10T05:37:21;13.23;;;9.35;;
60038;SDS011;45916;52.734;6.544;2023-05-10T05:39:48;13.27;;;9.85;;
60038;SDS011;45916;52.734;6.544;2023-05-10T05:42:13;14.40;;;9.95;;
60038;SDS011;45916;52.734;6.544;2023-05-10T05:44:41;15.23;;;10.07;;
60038;SDS011;45916;52.734;6.544;2023-05-10T05:47:07;13.88;;;9.85;;
60038;SDS011;45916;52.734;6.544;2023-05-10T05:49:32;17.20;;;10.95;;
60038;SDS011;45916;52.734;6.544;2023-05-10T05:52:02;17.15;;;10.75;;
60038;SDS011;45916;52.734;6.544;2023-05-10T05:54:28;16.13;;;11.13;;
60038;SDS011;45916;52.734;6.544;2023-05-10T05:56:55;16.13;;;10.88;;
60038;SDS011;45916;52.734;6.544;2023-05-10T05:59:22;14.98;;;10.38;;
60038;SDS011;45916;52.734;6.544;2023-05-10T06:01:48;16.23;;;10.32;;
60038;SDS011;45916;52.734;6.544;2023-05-10T06:04:14;13.10;;;9.57;;
60038;SDS011;45916;52.734;6.544;2023-05-10T06:06:40;16.00;;;10.25;;
60038;SDS011;45916;52.734;6.544;2023-05-10T06:09:05;15.10;;;10.05;;
60038;SDS011;45916;52.734;6.544;2023-05-10T06:11:31;14.95;;;11.00;;
60038;SDS011;45916;52.734;6.544;2023-05-10T06:13:57;13.65;;;9.38;;
60038;SDS011;45916;52.734;6.544;2023-05-10T06:16:24;14.32;;;9.45;;
60038;SDS011;45916;52.734;6.544;2023-05-10T06:18:49;12.80;;;9.30;;
60038;SDS011;45916;52.734;6.544;2023-05-10T06:21:16;11.43;;;8.13;;
60038;SDS011;45916;52.734;6.544;2023-05-10T06:23:41;12.25;;;8.15;;
60038;SDS011;45916;52.734;6.544;2023-05-10T06:26:07;14.30;;;8.77;;
60038;SDS011;45916;52.734;6.544;2023-05-10T06:28:33;12.73;;;8.32;;
60038;SDS011;45916;52.734;6.544;2023-05-10T06:30:59;11.88;;;7.70;;
60038;SDS011;45916;52.734;6.544;2023-05-10T06:33:25;10.57;;;7.90;;
60038;SDS011;45916;52.734;6.544;2023-05-10T06:35:51;10.57;;;7.35;;
60038;SDS011;45916;52.734;6.544;2023-05-10T06:38:16;11.43;;;7.65;;
60038;SDS011;45916;52.734;6.544;2023-05-10T06:40:42;12.48;;;8.05;;
60038;SDS011;45916;52.734;6.544;2023-05-10T06:43:08;13.65;;;8.10;;
60038;SDS011;45916;52.734;6.544;2023-05-10T06:45:35;12.18;;;8.25;;
60038;SDS011;45916;52.734;6.544;2023-05-10T06:48:01;14.73;;;8.90;;
60038;SDS011;45916;52.734;6.544;2023-05-10T06:50:26;13.85;;;7.82;;
60038;SDS011;45916;52.734;6.544;2023-05-10T06:52:52;11.52;;;7.53;;
60038;SDS011;45916;52.734;6.544;2023-05-10T06:55:18;13.63;;;8.30;;
60038;SDS011;45916;52.734;6.544;2023-05-10T06:57:44;13.73;;;8.63;;
60038;SDS011;45916;52.734;6.544;2023-05-10T07:00:09;13.00;;;8.25;;
60038;SDS011;45916;52.734;6.544;2023-05-10T07:02:35;11.88;;;7.97;;
60038;SDS011;45916;52.734;6.544;2023-05-10T07:05:01;11.02;;;6.47;;
60038;SDS011;45916;52.734;6.544;2023-05-10T07:07:27;12.23;;;7.97;;
60038;SDS011;45916;52.734;6.544;2023-05-10T07:09:53;12.60;;;7.13;;
60038;SDS011;45916;52.734;6.544;2023-05-10T07:12:19;10.90;;;6.72;;
60038;SDS011;45916;52.734;6.544;2023-05-10T07:14:45;13.07;;;7.95;;
60038;SDS011;45916;52.734;6.544;2023-05-10T07:17:11;11.95;;;8.05;;
60038;SDS011;45916;52.734;6.544;2023-05-10T07:19:37;10.43;;;6.82;;
60038;SDS011;45916;52.734;6.544;2023-05-10T07:22:03;10.65;;;7.43;;
60038;SDS011;45916;52.734;6.544;2023-05-10T07:24:28;11.45;;;6.18;;
60038;SDS011;45916;52.734;6.544;2023-05-10T07:26:54;9.98;;;6.55;;
60038;SDS011;45916;52.734;6.544;2023-05-10T07:29:20;12.63;;;7.15;;
60038;SDS011;45916;52.734;6.544;2023-05-10T07:31:46;11.07;;;6.80;;
60038;SDS011;45916;52.734;6.544;2023-05-10T07:34:11;11.98;;;6.85;;
60038;SDS011;45916;52.734;6.544;2023-05-10T07:36:37;11.98;;;7.95;;
60038;SDS011;45916;52.734;6.544;2023-05-10T07:39:03;10.77;;;7.05;;
60038;SDS011;45916;52.734;6.544;2023-05-10T07:41:28;11.95;;;7.15;;
60038;SDS011;45916;52.734;6.544;2023-05-10T07:43:54;10.38;;;5.97;;
60038;SDS011;45916;52.734;6.544;2023-05-10T07:46:20;11.35;;;6.68;;
60038;SDS011;45916;52.734;6.544;2023-05-10T07:48:46;10.15;;;6.32;;
60038;SDS011;45916;52.734;6.544;2023-05-10T07:51:11;12.40;;;6.00;;
60038;SDS011;45916;52.734;6.544;2023-05-10T07:53:37;12.43;;;6.18;;
60038;SDS011;45916;52.734;6.544;2023-05-10T07:56:48;10.05;;;5.82;;
60038;SDS011;45916;52.734;6.544;2023-05-10T07:58:58;10.02;;;5.78;;
60038;SDS011;45916;52.734;6.544;2023-05-10T08:01:24;9.60;;;5.90;;
60038;SDS011;45916;52.734;6.544;2023-05-10T08:03:51;9.00;;;5.15;;
60038;SDS011;45916;52.734;6.544;2023-05-10T08:06:18;8.43;;;4.68;;
60038;SDS011;45916;52.734;6.544;2023-05-10T08:08:45;8.82;;;5.32;;
60038;SDS011;45916;52.734;6.544;2023-05-10T08:11:15;8.45;;;4.55;;
60038;SDS011;45916;52.734;6.544;2023-05-10T08:13:41;8.15;;;4.18;;
60038;SDS011;45916;52.734;6.544;2023-05-10T08:16:07;8.13;;;4.57;;
60038;SDS011;45916;52.734;6.544;2023-05-10T08:18:33;9.05;;;4.78;;
60038;SDS011;45916;52.734;6.544;2023-05-10T08:20:58;9.95;;;4.90;;
60038;SDS011;45916;52.734;6.544;2023-05-10T08:23:24;7.32;;;5.03;;
60038;SDS011;45916;52.734;6.544;2023-05-10T08:25:50;7.82;;;4.50;;
60038;SDS011;45916;52.734;6.544;2023-05-10T08:28:15;7.15;;;3.65;;
60038;SDS011;45916;52.734;6.544;2023-05-10T08:30:41;8.25;;;4.15;;
60038;SDS011;45916;52.734;6.544;2023-05-10T08:33:07;6.20;;;3.65;;
60038;SDS011;45916;52.734;6.544;2023-05-10T08:35:32;7.35;;;3.97;;
60038;SDS011;45916;52.734;6.544;2023-05-10T08:38:00;7.18;;;4.25;;
60038;SDS011;45916;52.734;6.544;2023-05-10T08:40:26;7.70;;;3.58;;
60038;SDS011;45916;52.734;6.544;2023-05-10T08:42:58;6.47;;;3.15;;
60038;SDS011;45916;52.734;6.544;2023-05-10T08:45:28;6.20;;;3.83;;
60038;SDS011;45916;52.734;6.544;2023-05-10T08:47:57;6.80;;;3.80;;
60038;SDS011;45916;52.734;6.544;2023-05-10T08:50:26;6.35;;;3.50;;
60038;SDS011;45916;52.734;6.544;2023-05-10T08:52:52;6.88;;;3.83;;
60038;SDS011;45916;52.734;6.544;2023-05-10T08:55:23;6.53;;;3.88;;
60038;SDS011;45916;52.734;6.544;2023-05-10T08:57:49;5.90;;;3.47;;
60038;SDS011;45916;52.734;6.544;2023-05-10T09:00:15;7.78;;;3.90;;
60038;SDS011;45916;52.734;6.544;2023-05-10T09:02:43;5.88;;;3.78;;
60038;SDS011;45916;52.734;6.544;2023-05-10T09:05:10;6.13;;;3.67;;
60038;SDS011;45916;52.734;6.544;2023-05-10T09:07:37;6.63;;;4.00;;
60038;SDS011;45916;52.734;6.544;2023-05-10T09:10:03;7.30;;;4.30;;
60038;SDS011;45916;52.734;6.544;2023-05-10T09:12:29;7.20;;;3.85;;
60038;SDS011;45916;52.734;6.544;2023-05-10T09:14:55;7.85;;;4.45;;
60038;SDS011;45916;52.734;6.544;2023-05-10T09:17:24;6.97;;;4.40;;
60038;SDS011;45916;52.734;6.544;2023-05-10T09:19:56;6.82;;;4.65;;
60038;SDS011;45916;52.734;6.544;2023-05-10T09:22:23;8.30;;;5.18;;
60038;SDS011;45916;52.734;6.544;2023-05-10T09:25:03;8.05;;;5.00;;
60038;SDS011;45916;52.734;6.544;2023-05-10T09:27:33;8.27;;;5.22;;
60038;SDS011;45916;52.734;6.544;2023-05-10T09:29:59;9.60;;;6.03;;
60038;SDS011;45916;52.734;6.544;2023-05-10T09:32:40;8.07;;;6.07;;
60038;SDS011;45916;52.734;6.544;2023-05-10T09:35:11;9.25;;;6.10;;
60038;SDS011;45916;52.734;6.544;2023-05-10T09:37:39;9.18;;;5.95;;
60038;SDS011;45916;52.734;6.544;2023-05-10T09:40:12;9.05;;;5.93;;
60038;SDS011;45916;52.734;6.544;2023-05-10T09:42:41;8.13;;;6.05;;
60038;SDS011;45916;52.734;6.544;2023-05-10T09:45:08;9.93;;;6.47;;
60038;SDS011;45916;52.734;6.544;2023-05-10T09:47:35;10.63;;;6.63;;
60038;SDS011;45916;52.734;6.544;2023-05-10T09:50:01;10.68;;;6.57;;
60038;SDS011;45916;52.734;6.544;2023-05-10T09:55:13;11.25;;;7.85;;
60038;SDS011;45916;52.734;6.544;2023-05-10T09:57:40;10.35;;;7.75;;
60038;SDS011;45916;52.734;6.544;2023-05-10T10:00:06;11.80;;;8.25;;
60038;SDS011;45916;52.734;6.544;2023-05-10T10:02:32;11.85;;;7.97;;
60038;SDS011;45916;52.734;6.544;2023-05-10T10:05:00;10.65;;;8.35;;
60038;SDS011;45916;52.734;6.544;2023-05-10T10:07:28;11.20;;;8.50;;
60038;SDS011;45916;52.734;6.544;2023-05-10T10:09:54;12.15;;;8.95;;
60038;SDS011;45916;52.734;6.544;2023-05-10T10:12:20;13.13;;;9.60;;
60038;SDS011;45916;52.734;6.544;2023-05-10T10:14:49;12.25;;;8.93;;
60038;SDS011;45916;52.734;6.544;2023-05-10T10:17:16;13.15;;;9.20;;
60038;SDS011;45916;52.734;6.544;2023-05-10T10:19:42;12.02;;;8.13;;
60038;SDS011;45916;52.734;6.544;2023-05-10T10:22:08;12.60;;;9.30;;
60038;SDS011;45916;52.734;6.544;2023-05-10T10:27:05;13.57;;;9.30;;
60038;SDS011;45916;52.734;6.544;2023-05-10T10:29:39;12.40;;;8.88;;
60038;SDS011;45916;52.734;6.544;2023-05-10T10:32:25;12.70;;;9.07;;
60038;SDS011;45916;52.734;6.544;2023-05-10T10:37:40;13.68;;;9.45;;
60038;SDS011;45916;52.734;6.544;2023-05-10T10:42:55;10.60;;;8.65;;
60038;SDS011;45916;52.734;6.544;2023-05-10T10:45:22;13.20;;;8.95;;
60038;SDS011;45916;52.734;6.544;2023-05-10T10:47:48;12.48;;;8.07;;
60038;SDS011;45916;52.734;6.544;2023-05-10T10:50:42;12.02;;;9.02;;
60038;SDS011;45916;52.734;6.544;2023-05-10T10:53:10;11.70;;;9.25;;
60038;SDS011;45916;52.734;6.544;2023-05-10T10:55:43;11.38;;;8.02;;
60038;SDS011;45916;52.734;6.544;2023-05-10T10:58:12;11.75;;;8.75;;
60038;SDS011;45916;52.734;6.544;2023-05-10T11:03:41;10.88;;;8.38;;
60038;SDS011;45916;52.734;6.544;2023-05-10T11:06:32;12.95;;;8.88;;
60038;SDS011;45916;52.734;6.544;2023-05-10T11:08:59;12.77;;;9.02;;
60038;SDS011;45916;52.734;6.544;2023-05-10T11:11:53;10.63;;;7.80;;
60038;SDS011;45916;52.734;6.544;2023-05-10T11:14:23;12.25;;;7.82;;
60038;SDS011;45916;52.734;6.544;2023-05-10T11:16:50;13.00;;;9.27;;
60038;SDS011;45916;52.734;6.544;2023-05-10T11:19:16;11.05;;;8.55;;
60038;SDS011;45916;52.734;6.544;2023-05-10T11:24:30;11.50;;;8.30;;
60038;SDS011;45916;52.734;6.544;2023-05-10T11:26:56;10.35;;;7.93;;
60038;SDS011;45916;52.734;6.544;2023-05-10T11:29:22;10.90;;;8.48;;
60038;SDS011;45916;52.734;6.544;2023-05-10T11:31:48;11.55;;;8.25;;
60038;SDS011;45916;52.734;6.544;2023-05-10T11:34:27;12.32;;;9.23;;
60038;SDS011;45916;52.734;6.544;2023-05-10T11:37:00;13.98;;;11.00;;
60038;SDS011;45916;52.734;6.544;2023-05-10T11:39:29;18.77;;;11.75;;
60038;SDS011;45916;52.734;6.544;2023-05-10T11:41:56;16.15;;;11.55;;
60038;SDS011;45916;52.734;6.544;2023-05-10T11:44:23;16.73;;;11.60;;
60038;SDS011;45916;52.734;6.544;2023-05-10T11:46:49;14.52;;;12.07;;
60038;SDS011;45916;52.734;6.544;2023-05-10T11:49:15;14.00;;;10.77;;
60038;SDS011;45916;52.734;6.544;2023-05-10T11:51:41;15.65;;;10.45;;
60038;SDS011;45916;52.734;6.544;2023-05-10T11:54:09;15.18;;;10.48;;
60038;SDS011;45916;52.734;6.544;2023-05-10T11:56:36;15.10;;;10.98;;
60038;SDS011;45916;52.734;6.544;2023-05-10T11:59:03;13.60;;;11.35;;
60038;SDS011;45916;52.734;6.544;2023-05-10T12:01:29;13.00;;;9.35;;
60038;SDS011;45916;52.734;6.544;2023-05-10T12:03:56;12.95;;;9.75;;
60038;SDS011;45916;52.734;6.544;2023-05-10T12:06:26;14.68;;;10.40;;
60038;SDS011;45916;52.734;6.544;2023-05-10T12:08:53;15.85;;;9.45;;
60038;SDS011;45916;52.734;6.544;2023-05-10T12:11:19;11.65;;;8.02;;
60038;SDS011;45916;52.734;6.544;2023-05-10T12:13:46;12.07;;;8.77;;
60038;SDS011;45916;52.734;6.544;2023-05-10T12:16:22;12.27;;;8.82;;
60038;SDS011;45916;52.734;6.544;2023-05-10T12:18:50;13.85;;;9.23;;
60038;SDS011;45916;52.734;6.544;2023-05-10T12:21:17;13.50;;;9.93;;
60038;SDS011;45916;52.734;6.544;2023-05-10T12:23:48;14.10;;;10.05;;
60038;SDS011;45916;52.734;6.544;2023-05-10T12:26:24;13.07;;;9.43;;
60038;SDS011;45916;52.734;6.544;2023-05-10T12:28:52;9.90;;;7.53;;
60038;SDS011;45916;52.734;6.544;2023-05-10T12:31:18;12.35;;;8.18;;
60038;SDS011;45916;52.734;6.544;2023-05-10T12:33:44;10.57;;;7.43;;
60038;SDS011;45916;52.734;6.544;2023-05-10T12:36:15;9.65;;;5.63;;
60038;SDS011;45916;52.734;6.544;2023-05-10T12:38:42;10.10;;;6.15;;
60038;SDS011;45916;52.734;6.544;2023-05-10T12:41:10;9.13;;;6.63;;
60038;SDS011;45916;52.734;6.544;2023-05-10T12:43:37;10.93;;;7.32;;
60038;SDS011;45916;52.734;6.544;2023-05-10T12:46:10;10.38;;;7.00;;
60038;SDS011;45916;52.734;6.544;2023-05-10T12:48:38;10.23;;;6.78;;
60038;SDS011;45916;52.734;6.544;2023-05-10T12:51:04;11.85;;;7.90;;
60038;SDS011;45916;52.734;6.544;2023-05-10T12:53:34;11.80;;;7.55;;
60038;SDS011;45916;52.734;6.544;2023-05-10T12:56:00;11.88;;;9.20;;
60038;SDS011;45916;52.734;6.544;2023-05-10T12:58:25;13.40;;;9.43;;
60038;SDS011;45916;52.734;6.544;2023-05-10T13:00:51;13.40;;;8.98;;
60038;SDS011;45916;52.734;6.544;2023-05-10T13:03:17;13.13;;;9.15;;
60038;SDS011;45916;52.734;6.544;2023-05-10T13:05:43;13.35;;;8.98;;
60038;SDS011;45916;52.734;6.544;2023-05-10T13:08:09;12.30;;;8.52;;
60038;SDS011;45916;52.734;6.544;2023-05-10T13:10:34;11.60;;;8.52;;
60038;SDS011;45916;52.734;6.544;2023-05-10T13:13:00;11.80;;;9.07;;
60038;SDS011;45916;52.734;6.544;2023-05-10T13:15:26;14.70;;;10.88;;
60038;SDS011;45916;52.734;6.544;2023-05-10T13:17:52;14.98;;;11.48;;
60038;SDS011;45916;52.734;6.544;2023-05-10T13:20:18;13.88;;;9.70;;
60038;SDS011;45916;52.734;6.544;2023-05-10T13:22:44;11.77;;;8.88;;
60038;SDS011;45916;52.734;6.544;2023-05-10T13:25:10;12.65;;;8.93;;
60038;SDS011;45916;52.734;6.544;2023-05-10T13:27:37;12.00;;;8.57;;
60038;SDS011;45916;52.734;6.544;2023-05-10T13:30:03;11.18;;;7.35;;
60038;SDS011;45916;52.734;6.544;2023-05-10T13:32:30;11.63;;;7.38;;
60038;SDS011;45916;52.734;6.544;2023-05-10T13:34:55;10.32;;;6.43;;
60038;SDS011;45916;52.734;6.544;2023-05-10T13:37:21;9.02;;;5.65;;
60038;SDS011;45916;52.734;6.544;2023-05-10T13:39:47;9.18;;;6.13;;
60038;SDS011;45916;52.734;6.544;2023-05-10T13:42:13;9.63;;;5.80;;
60038;SDS011;45916;52.734;6.544;2023-05-10T13:44:39;8.70;;;5.95;;
60038;SDS011;45916;52.734;6.544;2023-05-10T13:47:05;9.35;;;6.13;;
60038;SDS011;45916;52.734;6.544;2023-05-10T13:49:31;8.30;;;4.82;;
60038;SDS011;45916;52.734;6.544;2023-05-10T13:51:58;11.47;;;5.27;;
60038;SDS011;45916;52.734;6.544;2023-05-10T13:54:30;11.18;;;5.95;;
60038;SDS011;45916;52.734;6.544;2023-05-10T13:56:56;8.18;;;6.13;;
60038;SDS011;45916;52.734;6.544;2023-05-10T13:59:22;8.13;;;5.65;;
60038;SDS011;45916;52.734;6.544;2023-05-10T14:01:48;8.85;;;5.75;;
60038;SDS011;45916;52.734;6.544;2023-05-10T14:04:13;9.15;;;5.50;;
60038;SDS011;45916;52.734;6.544;2023-05-10T14:06:39;8.68;;;6.22;;
60038;SDS011;45916;52.734;6.544;2023-05-10T14:09:05;9.65;;;7.00;;
60038;SDS011;45916;52.734;6.544;2023-05-10T14:11:30;11.45;;;6.72;;
60038;SDS011;45916;52.734;6.544;2023-05-10T14:13:56;11.27;;;7.40;;
60038;SDS011;45916;52.734;6.544;2023-05-10T14:16:22;12.85;;;8.75;;
60038;SDS011;45916;52.734;6.544;2023-05-10T14:18:47;10.75;;;7.95;;
60038;SDS011;45916;52.734;6.544;2023-05-10T14:21:13;11.73;;;7.55;;
60038;SDS011;45916;52.734;6.544;2023-05-10T14:23:40;9.45;;;6.35;;
60038;SDS011;45916;52.734;6.544;2023-05-10T14:26:06;11.30;;;7.13;;
60038;SDS011;45916;52.734;6.544;2023-05-10T14:28:32;9.82;;;6.97;;
60038;SDS011;45916;52.734;6.544;2023-05-10T14:30:57;11.65;;;7.65;;
60038;SDS011;45916;52.734;6.544;2023-05-10T14:33:24;12.20;;;8.10;;
60038;SDS011;45916;52.734;6.544;2023-05-10T14:35:50;10.45;;;7.45;;
60038;SDS011;45916;52.734;6.544;2023-05-10T14:38:16;12.75;;;9.15;;
60038;SDS011;45916;52.734;6.544;2023-05-10T14:40:41;10.95;;;7.90;;
60038;SDS011;45916;52.734;6.544;2023-05-10T14:43:08;13.38;;;9.18;;
60038;SDS011;45916;52.734;6.544;2023-05-10T14:45:34;13.38;;;8.68;;
60038;SDS011;45916;52.734;6.544;2023-05-10T14:47:59;12.48;;;9.45;;
60038;SDS011;45916;52.734;6.544;2023-05-10T14:50:25;12.45;;;9.52;;
60038;SDS011;45916;52.734;6.544;2023-05-10T14:52:51;12.82;;;9.80;;
60038;SDS011;45916;52.734;6.544;2023-05-10T14:55:17;13.00;;;9.05;;
60038;SDS011;45916;52.734;6.544;2023-05-10T14:57:42;15.32;;;10.15;;
60038;SDS011;45916;52.734;6.544;2023-05-10T15:00:09;13.55;;;9.40;;
60038;SDS011;45916;52.734;6.544;2023-05-10T15:02:35;14.23;;;9.25;;
60038;SDS011;45916;52.734;6.544;2023-05-10T15:05:01;13.02;;;9.50;;
60038;SDS011;45916;52.734;6.544;2023-05-10T15:07:27;14.68;;;10.75;;
60038;SDS011;45916;52.734;6.544;2023-05-10T15:09:53;13.27;;;9.90;;
60038;SDS011;45916;52.734;6.544;2023-05-10T15:12:19;14.05;;;10.02;;
60038;SDS011;45916;52.734;6.544;2023-05-10T15:14:45;13.23;;;10.07;;
60038;SDS011;45916;52.734;6.544;2023-05-10T15:17:11;13.40;;;9.10;;
60038;SDS011;45916;52.734;6.544;2023-05-10T15:19:36;15.00;;;10.00;;